createdAt,value
2022-10-11T00:01:10.434Z,12.60
2022-10-11T00:03:38.185Z,12.60
2022-10-11T00:06:06.577Z,12.40
2022-10-11T00:08:34.830Z,12.30
2022-10-11T00:11:03.591Z,12.40
2022-10-11T00:13:32.628Z,12.30
2022-10-11T00:16:00.421Z,12.40
2022-10-11T00:18:28.093Z,12.10
2022-10-11T00:21:02.116Z,12.00
2022-10-11T00:23:29.955Z,12.10
2022-10-11T00:25:58.347Z,12.10
2022-10-11T00:28:26.110Z,12.10
2022-10-11T00:30:55.408Z,12.00
2022-10-11T00:33:24.054Z,11.80
2022-10-11T00:35:51.732Z,11.70
2022-10-11T00:38:19.392Z,11.70
2022-10-11T00:40:47.059Z,11.70
2022-10-11T00:43:17.076Z,11.60
2022-10-11T00:46:01.857Z,11.60
2022-10-11T00:48:32.871Z,11.40
2022-10-11T00:51:01.689Z,11.40
2022-10-11T00:53:30.162Z,11.30
2022-10-11T00:56:02.085Z,11.40
2022-10-11T00:58:30.187Z,11.40
2022-10-11T01:00:58.316Z,11.30
2022-10-11T01:03:27.997Z,11.10
2022-10-11T01:05:55.995Z,11.20
2022-10-11T01:08:24.053Z,11.10
2022-10-11T01:10:52.398Z,11.10
2022-10-11T01:13:26.970Z,11.10
2022-10-11T01:15:57.937Z,11.00
2022-10-11T01:18:30.278Z,10.80
2022-10-11T01:21:01.977Z,10.80
2022-10-11T01:23:38.413Z,10.80
2022-10-11T01:26:14.364Z,10.70
2022-10-11T01:28:44.571Z,10.60
2022-10-11T01:31:19.010Z,10.70
2022-10-11T01:33:51.172Z,10.70
2022-10-11T01:36:27.686Z,10.50
2022-10-11T01:38:57.299Z,10.50
2022-10-11T01:41:26.593Z,10.50
2022-10-11T01:43:58.611Z,10.40
2022-10-11T01:46:28.187Z,10.40
2022-10-11T01:48:56.932Z,10.30
2022-10-11T01:51:25.961Z,10.30
2022-10-11T01:53:59.847Z,10.20
2022-10-11T01:56:36.523Z,10.30
2022-10-11T01:59:20.425Z,10.20
2022-10-11T02:01:57.583Z,10.10
2022-10-11T02:04:28.438Z,10.10
2022-10-11T02:06:59.405Z,10.10
2022-10-11T02:09:30.070Z,10.00
2022-10-11T02:12:01.489Z,10.00
2022-10-11T02:14:32.506Z,10.00
2022-10-11T02:17:07.505Z,9.90
2022-10-11T02:19:36.896Z,9.90
2022-10-11T02:22:06.730Z,9.80
2022-10-11T02:24:35.941Z,9.70
2022-10-11T02:27:05.110Z,9.80
2022-10-11T02:29:34.711Z,9.70
2022-10-11T02:32:03.877Z,9.70
2022-10-11T02:34:33.048Z,9.60
2022-10-11T02:37:04.203Z,9.70
2022-10-11T02:39:35.314Z,9.60
2022-10-11T02:42:05.653Z,9.50
2022-10-11T02:44:35.633Z,9.40
2022-10-11T02:47:04.829Z,9.40
2022-10-11T02:49:32.862Z,9.30
2022-10-11T02:52:00.543Z,9.30
2022-10-11T02:54:28.466Z,9.30
2022-10-11T02:56:56.132Z,9.30
2022-10-11T02:59:23.848Z,9.20
2022-10-11T03:01:51.540Z,9.20
2022-10-11T03:04:22.561Z,9.20
2022-10-11T03:06:50.315Z,9.10
2022-10-11T03:09:18.443Z,9.10
2022-10-11T03:11:46.154Z,9.10
2022-10-11T03:14:13.830Z,9.20
2022-10-11T03:16:41.571Z,9.10
2022-10-11T03:19:09.274Z,9.10
2022-10-11T03:21:38.294Z,9.10
2022-10-11T03:24:06.238Z,9.10
2022-10-11T03:26:33.939Z,9.00
2022-10-11T03:29:01.669Z,9.00
2022-10-11T03:31:29.321Z,8.90
2022-10-11T03:33:57.050Z,8.90
2022-10-11T03:36:24.736Z,8.90
2022-10-11T03:38:53.768Z,9.00
2022-10-11T03:41:21.459Z,9.10
2022-10-11T03:43:49.140Z,8.90
2022-10-11T03:46:16.848Z,8.90
2022-10-11T03:48:44.553Z,8.90
2022-10-11T03:51:13.121Z,8.90
2022-10-11T03:53:40.827Z,8.80
2022-10-11T03:56:10.503Z,8.70
2022-10-11T03:58:38.487Z,8.80
2022-10-11T04:01:06.166Z,8.70
2022-10-11T04:03:33.925Z,8.60
2022-10-11T04:06:02.002Z,8.70
2022-10-11T04:08:30.001Z,8.70
2022-10-11T04:10:57.744Z,8.60
2022-10-11T04:13:26.965Z,8.60
2022-10-11T04:15:54.640Z,8.60
2022-10-11T04:18:22.395Z,8.50
2022-10-11T04:20:50.100Z,8.50
2022-10-11T04:23:18.327Z,8.50
2022-10-11T04:25:48.202Z,8.60
2022-10-11T04:28:19.173Z,8.40
2022-10-11T04:30:48.305Z,8.40
2022-10-11T04:33:16.048Z,8.30
2022-10-11T04:35:43.854Z,8.30
2022-10-11T04:38:11.561Z,8.30
2022-10-11T04:40:39.275Z,8.40
2022-10-11T04:43:06.978Z,8.30
2022-10-11T04:45:34.707Z,8.20
2022-10-11T04:48:03.757Z,8.20
2022-10-11T04:50:31.491Z,8.10
2022-10-11T04:52:59.189Z,8.20
2022-10-11T04:55:26.978Z,8.20
2022-10-11T04:57:54.695Z,8.10
2022-10-11T05:00:22.838Z,8.10
2022-10-11T05:02:52.195Z,8.20
2022-10-11T05:05:22.702Z,8.10
2022-10-11T05:07:50.352Z,8.10
2022-10-11T05:10:18.046Z,8.10
2022-10-11T05:12:45.733Z,8.00
2022-10-11T05:15:13.402Z,8.00
2022-10-11T05:17:41.093Z,8.00
2022-10-11T05:20:09.267Z,7.90
2022-10-11T05:22:38.267Z,8.00
2022-10-11T05:25:06.425Z,7.90
2022-10-11T05:27:34.155Z,7.90
2022-10-11T05:30:01.972Z,7.90
2022-10-11T05:32:29.751Z,7.90
2022-10-11T05:34:57.536Z,7.80
2022-10-11T05:37:25.360Z,7.80
2022-10-11T05:39:54.855Z,7.80
2022-10-11T05:42:22.592Z,7.80
2022-10-11T05:44:50.220Z,7.70
2022-10-11T05:47:17.913Z,7.70
2022-10-11T05:49:45.570Z,7.70
2022-10-11T05:52:13.637Z,7.80
2022-10-11T05:54:41.372Z,7.80
2022-10-11T05:57:10.400Z,7.80
2022-10-11T05:59:38.112Z,7.90
2022-10-11T06:02:06.135Z,7.80
2022-10-11T06:04:36.689Z,7.80
2022-10-11T06:07:04.577Z,7.80
2022-10-11T06:09:32.233Z,7.80
2022-10-11T06:11:59.935Z,8.90
2022-10-11T06:14:29.105Z,7.70
2022-10-11T06:16:56.760Z,7.70
2022-10-11T06:19:24.628Z,7.70
2022-10-11T06:21:52.868Z,7.80
2022-10-11T06:24:20.595Z,7.80
2022-10-11T06:26:49.460Z,7.90
2022-10-11T06:29:17.441Z,7.80
2022-10-11T06:31:46.544Z,7.80
2022-10-11T06:34:14.381Z,7.70
2022-10-11T06:36:42.063Z,7.90
2022-10-11T06:39:09.750Z,8.00
2022-10-11T06:41:37.448Z,8.00
2022-10-11T06:44:05.233Z,8.10
2022-10-11T06:46:33.094Z,8.10
2022-10-11T06:49:02.302Z,8.10
2022-10-11T06:51:30.241Z,8.20
2022-10-11T06:53:58.772Z,8.30
2022-10-11T06:56:27.454Z,8.40
2022-10-11T06:58:55.555Z,8.50
2022-10-11T07:01:25.643Z,8.60
2022-10-11T07:03:54.681Z,8.60
2022-10-11T07:06:24.497Z,8.60
2022-10-11T07:08:52.193Z,8.70
2022-10-11T07:11:20.843Z,8.70
2022-10-11T07:13:50.635Z,8.80
2022-10-11T07:16:18.722Z,9.00
2022-10-11T07:18:46.700Z,9.00
2022-10-11T07:21:16.466Z,9.00
2022-10-11T07:23:45.555Z,9.10
2022-10-11T07:26:13.317Z,9.20
2022-10-11T07:28:41.281Z,9.20
2022-10-11T07:31:10.167Z,9.30
2022-10-11T07:33:37.900Z,9.40
2022-10-11T07:36:07.029Z,9.50
2022-10-11T07:38:35.108Z,9.60
2022-10-11T07:41:06.996Z,9.70
2022-10-11T07:43:35.097Z,9.90
2022-10-11T07:46:04.638Z,9.90
2022-10-11T07:48:33.316Z,10.00
2022-10-11T07:51:04.573Z,10.10
2022-10-11T07:53:32.233Z,10.20
2022-10-11T07:56:03.630Z,10.30
2022-10-11T07:58:32.868Z,10.40
2022-10-11T08:01:00.599Z,10.50
2022-10-11T08:03:28.320Z,10.60
2022-10-11T08:05:55.982Z,10.60
2022-10-11T08:08:23.660Z,10.70
2022-10-11T08:10:53.540Z,10.80
2022-10-11T08:13:21.210Z,10.90
2022-10-11T08:15:50.262Z,10.90
2022-10-11T08:18:18.073Z,11.00
2022-10-11T08:20:45.837Z,11.00
2022-10-11T08:23:13.930Z,11.10
2022-10-11T08:25:42.462Z,11.20
2022-10-11T08:28:10.349Z,11.20
2022-10-11T08:30:38.133Z,11.30
2022-10-11T08:33:09.876Z,11.40
2022-10-11T08:35:37.617Z,11.50
2022-10-11T08:38:05.376Z,11.50
2022-10-11T08:40:35.428Z,11.60
2022-10-11T08:43:05.071Z,11.50
2022-10-11T08:45:33.944Z,11.60
2022-10-11T08:48:14.225Z,11.70
2022-10-11T08:50:42.135Z,11.70
2022-10-11T08:53:15.428Z,11.80
2022-10-11T08:55:46.545Z,11.90
2022-10-11T08:58:15.812Z,11.90
2022-10-11T09:00:44.815Z,11.90
2022-10-11T09:03:22.589Z,11.90
2022-10-11T09:05:54.464Z,11.90
2022-10-11T09:08:26.033Z,12.00
2022-10-11T09:10:59.449Z,12.10
2022-10-11T09:13:35.803Z,12.20
2022-10-11T09:16:10.915Z,12.20
2022-10-11T09:18:46.264Z,12.30
2022-10-11T09:21:23.877Z,12.30
2022-10-11T09:24:06.761Z,12.30
2022-10-11T09:26:36.337Z,12.30
2022-10-11T09:29:07.495Z,12.40
2022-10-11T09:31:35.236Z,12.40
2022-10-11T09:34:11.540Z,12.60
2022-10-11T09:36:42.680Z,12.70
2022-10-11T09:39:15.618Z,12.70
2022-10-11T09:41:46.526Z,12.70
2022-10-11T09:44:19.719Z,12.70
2022-10-11T09:46:48.201Z,12.70
2022-10-11T09:49:19.171Z,12.70
2022-10-11T09:51:50.661Z,12.80
2022-10-11T09:54:19.098Z,12.90
2022-10-11T09:56:47.629Z,13.00
2022-10-11T09:59:36.034Z,13.10
2022-10-11T10:02:09.117Z,13.10
2022-10-11T10:04:54.797Z,13.20
2022-10-11T10:07:22.472Z,13.30
2022-10-11T10:09:50.220Z,13.30
2022-10-11T10:12:21.605Z,13.40
2022-10-11T10:14:55.800Z,13.50
2022-10-11T10:17:23.513Z,13.60
2022-10-11T10:19:54.152Z,13.50
2022-10-11T10:22:23.665Z,13.50
2022-10-11T10:24:52.759Z,13.60
2022-10-11T10:27:22.090Z,13.70
2022-10-11T10:30:13.796Z,13.80
2022-10-11T10:32:48.546Z,13.70
2022-10-11T10:35:23.119Z,13.70
2022-10-11T10:37:53.737Z,13.80
2022-10-11T10:40:23.837Z,13.70
2022-10-11T10:42:51.931Z,13.80
2022-10-11T10:45:21.767Z,13.80
2022-10-11T10:48:07.990Z,13.90
2022-10-11T10:50:44.285Z,13.90
2022-10-11T10:53:18.521Z,13.90
2022-10-11T10:55:46.979Z,13.90
2022-10-11T10:58:25.036Z,14.10
2022-10-11T11:00:55.643Z,14.10
2022-10-11T11:03:25.024Z,14.10
2022-10-11T11:05:58.547Z,14.10
2022-10-11T11:08:31.994Z,14.20
2022-10-11T11:11:04.887Z,14.20
2022-10-11T11:13:37.800Z,14.30
2022-10-11T11:16:11.810Z,14.30
2022-10-11T11:18:42.766Z,14.40
2022-10-11T11:21:20.887Z,14.40
2022-10-11T11:23:54.480Z,14.40
2022-10-11T11:26:26.241Z,14.40
2022-10-11T11:29:17.522Z,14.40
2022-10-11T11:31:53.389Z,14.50
2022-10-11T11:34:23.429Z,14.50
2022-10-11T11:36:53.463Z,14.60
2022-10-11T11:39:22.720Z,14.60
2022-10-11T11:41:52.378Z,14.60
2022-10-11T11:44:27.278Z,14.70
2022-10-11T11:46:57.861Z,14.70
2022-10-11T11:49:29.380Z,14.70
2022-10-11T11:51:59.080Z,14.80
2022-10-11T11:54:30.314Z,14.60
2022-10-11T11:57:00.807Z,14.70
2022-10-11T11:59:32.190Z,14.70
2022-10-11T12:02:04.140Z,14.80
2022-10-11T12:04:33.549Z,14.80
2022-10-11T12:07:15.955Z,14.80
2022-10-11T12:09:45.230Z,14.80
2022-10-11T12:12:27.433Z,14.80
2022-10-11T12:15:03.435Z,14.90
2022-10-11T12:17:31.336Z,14.90
2022-10-11T12:20:02.120Z,15.00
2022-10-11T12:22:42.715Z,15.00
2022-10-11T12:25:29.677Z,15.10
2022-10-11T12:27:58.851Z,15.20
2022-10-11T12:30:46.873Z,15.10
2022-10-11T12:33:15.978Z,15.10
2022-10-11T12:36:05.568Z,15.20
2022-10-11T12:38:39.715Z,15.30
2022-10-11T12:41:22.361Z,15.30
2022-10-11T12:44:09.020Z,15.20
2022-10-11T12:46:41.552Z,15.30
2022-10-11T12:49:32.506Z,15.30
2022-10-11T12:52:01.806Z,15.30
2022-10-11T12:54:37.592Z,15.30
2022-10-11T12:57:21.823Z,15.30
2022-10-11T12:59:50.340Z,15.30
2022-10-11T13:02:24.743Z,15.40
2022-10-11T13:04:52.504Z,15.50
2022-10-11T13:07:23.648Z,15.50
2022-10-11T13:09:55.270Z,15.60
2022-10-11T13:12:23.927Z,15.60
2022-10-11T13:14:58.362Z,15.50
2022-10-11T13:17:27.108Z,15.50
2022-10-11T13:20:03.213Z,15.50
2022-10-11T13:22:34.492Z,15.60
2022-10-11T13:25:05.435Z,15.60
2022-10-11T13:27:33.404Z,15.50
2022-10-11T13:30:02.156Z,15.50
2022-10-11T13:32:30.765Z,15.60
2022-10-11T13:34:59.365Z,15.70
2022-10-11T13:37:28.783Z,15.70
2022-10-11T13:39:58.186Z,15.70
2022-10-11T13:42:29.625Z,15.70
2022-10-11T13:44:57.684Z,15.60
2022-10-11T13:47:28.180Z,15.70
2022-10-11T13:50:02.505Z,15.60
2022-10-11T13:52:30.213Z,15.60
2022-10-11T13:55:01.659Z,15.60
2022-10-11T13:57:36.774Z,15.60
2022-10-11T14:00:08.834Z,15.60
2022-10-11T14:02:36.984Z,15.60
2022-10-11T14:05:04.933Z,15.60
2022-10-11T14:07:36.326Z,15.60
2022-10-11T14:10:04.877Z,15.60
2022-10-11T14:12:38.093Z,15.70
2022-10-11T14:15:06.592Z,15.60
2022-10-11T14:17:39.011Z,15.60
2022-10-11T14:20:14.325Z,15.60
2022-10-11T14:22:42.149Z,15.60
2022-10-11T14:25:09.882Z,15.60
2022-10-11T14:27:39.143Z,15.60
2022-10-11T14:32:57.546Z,15.70
2022-10-11T14:35:26.784Z,15.70
2022-10-11T14:37:54.449Z,15.80
2022-10-11T14:40:25.013Z,15.80
2022-10-11T14:42:54.238Z,15.80
2022-10-11T14:45:22.184Z,15.80
2022-10-11T14:47:50.625Z,15.80
2022-10-11T14:50:29.499Z,15.90
2022-10-11T14:52:58.159Z,16.00
2022-10-11T14:55:28.141Z,15.90
2022-10-11T14:57:57.265Z,16.00
2022-10-11T15:00:26.672Z,16.00
2022-10-11T15:02:54.510Z,15.80
2022-10-11T15:05:23.126Z,15.80
2022-10-11T15:07:51.039Z,15.90
2022-10-11T15:10:20.200Z,15.90
2022-10-11T15:12:47.925Z,15.90
2022-10-11T15:15:20.476Z,16.00
2022-10-11T15:17:49.267Z,15.90
2022-10-11T15:20:21.586Z,15.90
2022-10-11T15:22:49.371Z,15.90
2022-10-11T15:25:17.358Z,15.80
2022-10-11T15:27:45.214Z,15.80
2022-10-11T15:30:15.287Z,15.80
2022-10-11T15:32:44.358Z,15.80
2022-10-11T15:35:12.138Z,15.70
2022-10-11T15:37:39.934Z,15.70
2022-10-11T15:40:15.748Z,15.60
2022-10-11T15:42:46.136Z,15.50
2022-10-11T15:45:14.375Z,15.50
2022-10-11T15:47:42.283Z,15.50
2022-10-11T15:50:24.332Z,15.50
2022-10-11T15:52:52.412Z,15.50
2022-10-11T15:55:20.097Z,15.50
2022-10-11T15:57:47.849Z,15.50
2022-10-11T16:00:21.257Z,15.50
2022-10-11T16:02:52.390Z,15.30
2022-10-11T16:05:22.214Z,14.90
2022-10-11T16:07:49.950Z,14.80
2022-10-11T16:10:17.780Z,14.40
2022-10-11T16:12:45.767Z,14.30
2022-10-11T16:15:13.615Z,14.20
2022-10-11T16:17:41.301Z,14.00
2022-10-11T16:20:09.424Z,13.80
2022-10-11T16:22:38.551Z,13.70
2022-10-11T16:25:06.259Z,13.60
2022-10-11T16:27:34.600Z,13.40
2022-10-11T16:30:02.335Z,13.40
2022-10-11T16:32:30.487Z,13.30
2022-10-11T16:34:58.233Z,13.20
2022-10-11T16:37:25.894Z,13.10
2022-10-11T16:39:54.949Z,13.00
2022-10-11T16:42:22.648Z,12.90
2022-10-11T16:44:50.400Z,12.80
2022-10-11T16:47:18.713Z,12.70
2022-10-11T16:49:46.519Z,12.50
2022-10-11T16:52:14.964Z,12.40
2022-10-11T16:54:44.278Z,12.30
2022-10-11T16:57:13.659Z,12.20
2022-10-11T16:59:43.607Z,12.30
2022-10-11T17:02:16.415Z,12.10
2022-10-11T17:04:44.273Z,12.00
2022-10-11T17:07:13.081Z,12.00
2022-10-11T17:09:43.992Z,11.90
2022-10-11T17:12:14.307Z,11.70
2022-10-11T17:14:42.562Z,11.60
2022-10-11T17:17:10.946Z,11.50
2022-10-11T17:19:44.860Z,11.40
2022-10-11T17:22:13.564Z,11.40
2022-10-11T17:24:41.238Z,11.30
2022-10-11T17:27:09.252Z,11.30
2022-10-11T17:29:38.677Z,11.20
2022-10-11T17:32:06.538Z,11.30
2022-10-11T17:34:34.352Z,11.40
2022-10-11T17:37:02.062Z,11.30
2022-10-11T17:39:29.852Z,11.20
2022-10-11T17:41:57.590Z,11.10
2022-10-11T17:44:25.336Z,10.80
2022-10-11T17:46:54.390Z,10.70
2022-10-11T17:49:22.100Z,10.70
2022-10-11T17:51:50.066Z,10.70
2022-10-11T17:54:17.808Z,10.80
2022-10-11T17:56:45.459Z,10.70
2022-10-11T17:59:18.838Z,10.60
2022-10-11T18:01:46.597Z,10.50
2022-10-11T18:04:17.466Z,10.40
2022-10-11T18:06:46.442Z,10.40
2022-10-11T18:09:15.447Z,10.20
2022-10-11T18:11:45.206Z,10.20
2022-10-11T18:14:12.951Z,10.20
2022-10-11T18:16:40.900Z,10.10
2022-10-11T18:19:09.514Z,10.00
2022-10-11T18:21:38.617Z,9.90
2022-10-11T18:24:07.779Z,9.90
2022-10-11T18:26:35.633Z,9.80
2022-10-11T18:29:03.373Z,9.70
2022-10-11T18:31:31.874Z,9.70
2022-10-11T18:33:59.559Z,9.80
2022-10-11T18:36:28.135Z,9.80
2022-10-11T18:38:58.492Z,9.60
2022-10-11T18:41:30.569Z,9.60
2022-10-11T18:43:59.534Z,9.80
2022-10-11T18:46:27.366Z,9.80
2022-10-11T18:48:56.117Z,9.80
2022-10-11T18:51:24.999Z,9.70
2022-10-11T18:53:53.273Z,9.50
2022-10-11T18:56:24.601Z,9.40
2022-10-11T18:58:52.996Z,9.30
2022-10-11T19:01:21.505Z,9.20
2022-10-11T19:03:50.373Z,9.40
2022-10-11T19:06:20.193Z,9.50
2022-10-11T19:08:48.501Z,10.80
2022-10-11T19:11:17.035Z,9.60
2022-10-11T19:13:46.104Z,9.50
2022-10-11T19:16:14.523Z,9.50
2022-10-11T19:18:44.372Z,9.40
2022-10-11T19:21:13.297Z,9.10
2022-10-11T19:23:41.824Z,9.10
2022-10-11T19:26:12.803Z,9.20
2022-10-11T19:28:40.598Z,9.10
2022-10-11T19:31:10.653Z,8.90
2022-10-11T19:33:38.434Z,8.80
2022-10-11T19:36:06.741Z,8.70
2022-10-11T19:38:35.540Z,8.70
2022-10-11T19:41:04.039Z,8.70
2022-10-11T19:43:31.733Z,8.70
2022-10-11T19:46:02.482Z,8.80
2022-10-11T19:48:31.553Z,8.80
2022-10-11T19:51:02.619Z,8.90
2022-10-11T19:53:30.315Z,8.80
2022-10-11T19:56:00.287Z,8.70
2022-10-11T19:58:28.120Z,8.80
2022-10-11T20:01:02.741Z,8.60
2022-10-11T20:03:31.893Z,8.80
2022-10-11T20:06:00.264Z,8.70
2022-10-11T20:08:28.500Z,8.60
2022-10-11T20:10:56.244Z,8.50
2022-10-11T20:13:23.974Z,8.60
2022-10-11T20:15:51.685Z,8.50
2022-10-11T20:18:19.327Z,8.40
2022-10-11T20:20:55.227Z,8.30
2022-10-11T20:23:27.462Z,8.40
2022-10-11T20:25:59.583Z,8.40
2022-10-11T20:28:28.041Z,8.30
2022-10-11T20:30:55.989Z,8.30
2022-10-11T20:33:23.656Z,8.20
2022-10-11T20:35:59.357Z,8.10
2022-10-11T20:38:27.390Z,8.10
2022-10-11T20:40:55.164Z,8.00
2022-10-11T20:43:24.697Z,8.00
2022-10-11T20:45:58.918Z,7.90
2022-10-11T20:48:26.601Z,8.00
2022-10-11T20:50:54.384Z,8.00
2022-10-11T20:53:23.779Z,7.90
2022-10-11T20:55:51.658Z,7.90
2022-10-11T20:58:19.743Z,7.80
2022-10-11T21:00:47.813Z,7.90
2022-10-11T21:03:16.316Z,7.80
2022-10-11T21:05:44.203Z,8.00
2022-10-11T21:08:12.287Z,8.00
2022-10-11T21:10:41.304Z,8.10
2022-10-11T21:13:09.250Z,8.10
2022-10-11T21:15:36.886Z,8.10
2022-10-11T21:18:04.768Z,8.10
2022-10-11T21:20:32.471Z,8.00
2022-10-11T21:23:01.876Z,8.00
2022-10-11T21:25:29.571Z,8.00
2022-10-11T21:27:58.676Z,7.80
2022-10-11T21:30:26.468Z,7.70
2022-10-11T21:32:57.307Z,7.60
2022-10-11T21:35:25.046Z,7.50
2022-10-11T21:37:52.734Z,7.50
2022-10-11T21:40:20.481Z,7.70
2022-10-11T21:42:48.290Z,7.70
2022-10-11T21:45:17.358Z,7.80
2022-10-11T21:47:46.296Z,7.80
2022-10-11T21:50:14.036Z,7.70
2022-10-11T21:52:41.759Z,7.70
2022-10-11T21:55:10.521Z,7.70
2022-10-11T21:57:38.235Z,7.70
2022-10-11T22:00:07.548Z,7.60
2022-10-11T22:02:38.002Z,7.50
2022-10-11T22:05:05.888Z,7.50
2022-10-11T22:07:33.564Z,7.50
2022-10-11T22:10:01.189Z,7.50
2022-10-11T22:12:28.872Z,7.50
2022-10-11T22:14:56.552Z,7.30
2022-10-11T22:17:24.286Z,7.30
2022-10-11T22:19:53.324Z,7.40
2022-10-11T22:22:21.083Z,7.40
2022-10-11T22:24:48.731Z,7.40
2022-10-11T22:27:16.419Z,7.40
2022-10-11T22:29:45.697Z,7.30
2022-10-11T22:32:13.451Z,7.30
2022-10-11T22:34:41.241Z,7.20
2022-10-11T22:37:10.238Z,7.00
2022-10-11T22:39:37.896Z,7.10
2022-10-11T22:42:05.670Z,7.20
2022-10-11T22:44:33.556Z,7.30
2022-10-11T22:47:01.273Z,7.40
2022-10-11T22:49:28.936Z,7.40
2022-10-11T22:51:56.629Z,7.20
2022-10-11T22:54:25.644Z,7.10
2022-10-11T22:56:53.303Z,7.00
2022-10-11T22:59:20.983Z,7.00
2022-10-11T23:01:48.650Z,7.00
2022-10-11T23:04:17.603Z,6.90
2022-10-11T23:06:45.259Z,7.00
2022-10-11T23:09:13.034Z,6.90
2022-10-11T23:11:42.045Z,6.90
2022-10-11T23:14:09.732Z,6.80
2022-10-11T23:16:37.507Z,7.00
2022-10-11T23:19:05.190Z,6.90
2022-10-11T23:21:32.920Z,7.00
2022-10-11T23:24:00.584Z,7.00
2022-10-11T23:26:28.312Z,7.00
2022-10-11T23:29:00.399Z,6.90
2022-10-11T23:31:28.076Z,7.00
2022-10-11T23:33:55.772Z,7.00
2022-10-11T23:36:24.475Z,7.00
2022-10-11T23:38:53.242Z,7.00
2022-10-11T23:41:20.962Z,6.90
2022-10-11T23:43:48.671Z,6.90
2022-10-11T23:46:17.918Z,6.80
2022-10-11T23:48:45.634Z,6.90
2022-10-11T23:51:15.029Z,6.80
2022-10-11T23:53:42.694Z,6.80
2022-10-11T23:56:10.935Z,6.70
2022-10-11T23:58:38.746Z,6.80
